Time;durP1;ratioP1;P1;durP2;ratioP2;P2;SDS_P1;SDS_P2;PMS_P1;PMS_P2;Temp;Humidity;BMP_temperature;BMP_pressure;BME280_temperature;BME280_humidity;BME280_pressure;Samples;Min_cycle;Max_cycle;Signal;HPM_P1;HPM_P2
2023/01/12 00:02:13;;;;;;;24.60;3.80;;;8.60;99.90;;;;;;4867272;29;20059;-96
2023/01/12 00:04:39;;;;;;;19.30;3.67;;;8.60;99.90;;;;;;4883448;29;20097;-94
2023/01/12 00:07:06;;;;;;;23.25;3.15;;;8.70;99.90;;;;;;4866632;29;20049;-93
2023/01/12 00:09:32;;;;;;;19.75;4.00;;;8.60;99.90;;;;;;4883516;29;20120;-93
2023/01/12 00:11:57;;;;;;;21.88;3.63;;;8.60;99.90;;;;;;4866695;29;20208;-96
2023/01/12 00:14:23;;;;;;;24.67;3.90;;;8.60;99.90;;;;;;4866624;29;20506;-94
2023/01/12 00:16:48;;;;;;;22.70;3.60;;;8.60;99.90;;;;;;4868139;29;20452;-95
2023/01/12 00:19:21;;;;;;;21.42;3.75;;;8.60;99.90;;;;;;4866552;29;20085;-93
2023/01/12 00:21:55;;;;;;;18.38;3.50;;;8.60;99.90;;;;;;4866984;29;20148;-93
2023/01/12 00:24:22;;;;;;;29.10;4.10;;;8.60;99.90;;;;;;4866602;29;20045;-94
2023/01/12 00:26:48;;;;;;;22.23;3.70;;;8.60;99.90;;;;;;4866867;29;20053;-94
2023/01/12 00:29:15;;;;;;;24.73;3.67;;;8.60;99.90;;;;;;4866200;29;20142;-94
2023/01/12 00:31:41;;;;;;;27.90;4.03;;;8.60;99.90;;;;;;4866679;29;20053;-94
2023/01/12 00:34:07;;;;;;;25.63;3.35;;;8.60;99.90;;;;;;4866415;29;20382;-94
2023/01/12 00:36:32;;;;;;;23.95;3.58;;;8.60;99.90;;;;;;4883070;29;20482;-93
2023/01/12 00:38:58;;;;;;;22.20;3.28;;;8.50;99.90;;;;;;4882973;29;20041;-94
2023/01/12 00:46:52;;;;;;;23.25;3.53;;;8.50;99.90;;;;;;4882983;29;20041;-95
2023/01/12 00:49:18;;;;;;;26.65;3.60;;;8.50;99.90;;;;;;4866118;29;20052;-94
2023/01/12 00:51:43;;;;;;;20.17;3.65;;;8.60;99.90;;;;;;4865794;29;20100;-94
2023/01/12 00:54:09;;;;;;;18.05;3.80;;;8.50;99.90;;;;;;4882274;29;20101;-93
2023/01/12 00:56:35;;;;;;;24.10;3.33;;;8.50;99.90;;;;;;4881681;29;20033;-94
2023/01/12 00:59:02;;;;;;;22.05;3.20;;;8.50;99.90;;;;;;4865885;29;20516;-94
2023/01/12 01:01:28;;;;;;;25.38;3.45;;;8.50;99.90;;;;;;4865382;29;20037;-93
2023/01/12 01:03:54;;;;;;;18.90;3.42;;;8.50;99.90;;;;;;4865130;29;20056;-94
2023/01/12 01:06:20;;;;;;;22.48;3.22;;;8.50;99.90;;;;;;4882331;29;20136;-94
2023/01/12 01:08:46;;;;;;;23.23;4.03;;;8.50;99.90;;;;;;4865894;29;20632;-95
2023/01/12 01:11:13;;;;;;;24.92;3.28;;;8.60;99.90;;;;;;4865092;29;20060;-93
2023/01/12 01:13:40;;;;;;;19.60;3.30;;;8.50;99.90;;;;;;4866005;29;20048;-94
2023/01/12 01:16:07;;;;;;;24.02;3.72;;;8.60;99.90;;;;;;4882312;29;20060;-94
2023/01/12 01:18:34;;;;;;;21.98;3.60;;;8.60;99.90;;;;;;4865710;29;20490;-94
2023/01/12 01:21:00;;;;;;;22.27;3.45;;;8.60;99.90;;;;;;4865787;29;20045;-94
2023/01/12 01:23:27;;;;;;;27.00;3.88;;;8.60;99.90;;;;;;4865350;29;20463;-95
2023/01/12 01:25:53;;;;;;;23.92;3.28;;;8.60;99.90;;;;;;4865442;29;20052;-94
2023/01/12 01:28:19;;;;;;;21.67;3.10;;;8.60;99.90;;;;;;4865291;29;20109;-95
2023/01/12 01:30:46;;;;;;;20.45;3.40;;;8.50;99.90;;;;;;4882000;29;20056;-94
2023/01/12 01:33:12;;;;;;;22.35;3.58;;;8.60;99.90;;;;;;4881813;29;20052;-95
2023/01/12 01:35:38;;;;;;;20.20;3.13;;;8.60;99.90;;;;;;4865857;29;20060;-95
2023/01/12 01:38:04;;;;;;;18.15;3.20;;;8.50;99.90;;;;;;4865015;29;20048;-95
2023/01/12 01:40:30;;;;;;;21.33;3.40;;;8.60;99.90;;;;;;4865099;29;20059;-95
2023/01/12 01:42:56;;;;;;;21.67;3.35;;;8.60;99.90;;;;;;4882242;29;20128;-95
2023/01/12 01:45:22;;;;;;;21.95;3.63;;;8.60;99.90;;;;;;4879301;29;20051;-94
2023/01/12 01:48:05;;;;;;;22.02;3.53;;;8.60;99.90;;;;;;4882181;29;20033;-95
2023/01/12 01:50:36;;;;;;;22.95;3.30;;;8.60;99.90;;;;;;4865725;29;20516;-95
2023/01/12 01:53:11;;;;;;;21.40;3.55;;;8.60;99.90;;;;;;4864890;29;20410;-94
2023/01/12 01:55:53;;;;;;;21.83;3.55;;;8.60;99.90;;;;;;4865410;29;20112;-95
2023/01/12 01:58:25;;;;;;;25.75;3.85;;;8.60;99.90;;;;;;4881627;29;20393;-94
2023/01/12 02:00:51;;;;;;;25.27;3.92;;;8.60;99.90;;;;;;4881752;29;20037;-94
2023/01/12 02:03:17;;;;;;;25.30;3.60;;;8.60;99.90;;;;;;4864864;29;20073;-94
2023/01/12 02:05:47;;;;;;;24.67;3.88;;;8.70;99.90;;;;;;4865160;29;20089;-96
2023/01/12 02:08:22;;;;;;;24.25;3.30;;;8.70;99.90;;;;;;4864831;29;20051;-95
2023/01/12 02:10:50;;;;;;;20.00;3.50;;;8.70;99.90;;;;;;4881667;29;20052;-95
2023/01/12 02:16:24;;;;;;;21.08;3.63;;;8.70;99.90;;;;;;4864947;29;20084;-95
2023/01/12 02:19:16;;;;;;;22.58;3.70;;;8.70;99.90;;;;;;4864774;29;20052;-94
2023/01/12 02:22:03;;;;;;;22.38;3.00;;;8.70;99.90;;;;;;4872349;29;20055;-95
2023/01/12 02:24:52;;;;;;;22.67;3.33;;;8.70;99.90;;;;;;4881255;29;20486;-95
2023/01/12 02:27:56;;;;;;;23.35;3.67;;;8.70;99.90;;;;;;4863876;29;20053;-95
2023/01/12 02:30:37;;;;;;;26.48;4.47;;;8.70;99.90;;;;;;4864337;29;20045;-93
2023/01/12 02:33:09;;;;;;;19.95;3.53;;;8.70;99.90;;;;;;4864737;29;20064;-96
2023/01/12 02:35:56;;;;;;;17.08;3.38;;;8.70;99.90;;;;;;4864912;29;20053;-93
2023/01/12 02:38:37;;;;;;;20.45;3.20;;;8.70;99.90;;;;;;4864009;29;20037;-93
2023/01/12 02:41:18;;;;;;;23.40;3.40;;;8.70;99.90;;;;;;4864780;29;20060;-93
2023/01/12 02:43:44;;;;;;;20.05;3.50;;;8.70;99.90;;;;;;4881108;29;20112;-94
2023/01/12 02:46:23;;;;;;;20.90;3.53;;;8.70;99.90;;;;;;4880405;29;20049;-93
2023/01/12 02:48:57;;;;;;;21.80;3.85;;;8.70;99.90;;;;;;4863086;29;20045;-93
2023/01/12 02:51:33;;;;;;;25.27;4.30;;;8.70;99.90;;;;;;4879573;29;20132;-93
2023/01/12 02:54:04;;;;;;;22.83;4.00;;;8.70;99.90;;;;;;4863657;29;20037;-94
2023/01/12 02:56:34;;;;;;;32.58;4.45;;;8.70;99.90;;;;;;4879819;29;20084;-94
2023/01/12 02:59:06;;;;;;;27.17;3.75;;;8.80;99.90;;;;;;4863781;29;20153;-93
2023/01/12 03:01:32;;;;;;;21.23;3.88;;;8.80;99.90;;;;;;4863601;29;20041;-93
2023/01/12 03:04:02;;;;;;;25.60;3.72;;;8.80;99.90;;;;;;4862879;29;20045;-93
2023/01/12 03:06:57;;;;;;;22.42;4.45;;;8.70;99.90;;;;;;4862989;29;20048;-93
2023/01/12 03:09:40;;;;;;;22.88;3.22;;;8.80;99.90;;;;;;4864991;29;20136;-92
2023/01/12 03:12:11;;;;;;;20.83;3.47;;;8.80;99.90;;;;;;4859146;29;20052;-93
2023/01/12 03:14:40;;;;;;;21.13;3.65;;;8.80;99.90;;;;;;4880015;29;20097;-94
2023/01/12 03:17:16;;;;;;;19.60;3.55;;;8.80;99.90;;;;;;4863462;29;20149;-94
2023/01/12 03:19:44;;;;;;;22.70;3.50;;;8.80;99.90;;;;;;4863680;29;20049;-93
2023/01/12 03:22:12;;;;;;;24.25;3.80;;;8.80;99.90;;;;;;4880085;29;20080;-93
2023/01/12 03:24:46;;;;;;;24.80;3.88;;;8.80;99.90;;;;;;4862656;29;20049;-92
2023/01/12 03:27:19;;;;;;;20.85;3.80;;;8.80;99.90;;;;;;4863201;29;20494;-92
2023/01/12 03:29:54;;;;;;;21.55;3.60;;;8.80;99.90;;;;;;4879502;29;20069;-93
2023/01/12 03:32:21;;;;;;;19.50;3.80;;;8.90;99.90;;;;;;4879653;29;20045;-93
2023/01/12 03:34:47;;;;;;;21.40;4.03;;;8.90;99.90;;;;;;4862939;29;20439;-93
2023/01/12 03:37:31;;;;;;;19.92;3.70;;;8.80;99.90;;;;;;4862323;29;20041;-92
2023/01/12 03:40:00;;;;;;;18.88;3.67;;;8.90;99.90;;;;;;4862734;29;20037;-92
2023/01/12 03:42:49;;;;;;;22.73;4.00;;;8.90;99.90;;;;;;4862777;29;20045;-93
2023/01/12 03:45:30;;;;;;;16.60;3.38;;;8.90;99.90;;;;;;4861210;29;20049;-92
2023/01/12 03:48:12;;;;;;;26.55;3.67;;;8.90;99.90;;;;;;4873574;29;20084;-94
2023/01/12 03:50:49;;;;;;;15.82;3.08;;;8.90;99.90;;;;;;4862989;29;20045;-94
2023/01/12 03:53:17;;;;;;;16.85;3.17;;;8.90;99.90;;;;;;4879088;29;20056;-93
2023/01/12 03:55:45;;;;;;;19.35;3.72;;;8.90;99.90;;;;;;4862735;29;20081;-93
2023/01/12 03:58:11;;;;;;;16.20;2.80;;;8.90;99.90;;;;;;4879356;29;20128;-92
2023/01/12 04:00:37;;;;;;;18.15;2.97;;;8.90;99.90;;;;;;4862378;29;20506;-93
2023/01/12 04:03:08;;;;;;;15.65;2.35;;;8.90;99.90;;;;;;4862687;29;20056;-94
2023/01/12 04:05:34;;;;;;;16.33;3.20;;;8.90;99.90;;;;;;4862976;29;20049;-93
2023/01/12 04:08:00;;;;;;;14.65;2.58;;;9.00;99.90;;;;;;4862428;29;20622;-92
2023/01/12 04:10:25;;;;;;;16.98;2.72;;;8.90;99.90;;;;;;4878385;29;20081;-93
2023/01/12 04:12:51;;;;;;;11.88;2.67;;;9.00;99.90;;;;;;4862310;29;20482;-92
2023/01/12 04:15:17;;;;;;;14.73;2.60;;;9.00;99.90;;;;;;4862720;29;20052;-93
2023/01/12 04:17:42;;;;;;;10.63;2.10;;;9.00;99.90;;;;;;4879540;29;20029;-92
2023/01/12 04:20:09;;;;;;;12.90;2.50;;;9.00;99.90;;;;;;4862203;29;20049;-92
2023/01/12 04:22:44;;;;;;;11.95;2.58;;;9.00;99.90;;;;;;4879055;29;20078;-93
2023/01/12 04:25:17;;;;;;;16.35;2.90;;;9.00;99.90;;;;;;4862867;29;20132;-93
2023/01/12 04:27:48;;;;;;;11.35;2.17;;;8.90;99.90;;;;;;4860399;29;20055;-93
2023/01/12 04:30:16;;;;;;;11.60;2.40;;;9.00;99.90;;;;;;4862208;29;20049;-93
2023/01/12 04:32:43;;;;;;;10.75;2.53;;;9.00;99.90;;;;;;4862648;29;20053;-94
2023/01/12 04:35:11;;;;;;;12.80;2.33;;;9.00;99.90;;;;;;4862655;29;20085;-94
2023/01/12 04:37:37;;;;;;;9.55;2.10;;;9.00;99.90;;;;;;4879013;29;20069;-93
2023/01/12 04:40:04;;;;;;;9.23;1.67;;;9.00;99.90;;;;;;4862565;29;20097;-94
2023/01/12 04:45:14;;;;;;;10.88;2.17;;;9.00;99.90;;;;;;4880147;29;20109;-93
2023/01/12 04:47:39;;;;;;;8.65;1.92;;;9.00;99.90;;;;;;4865760;29;20053;-93
2023/01/12 04:50:05;;;;;;;8.20;1.77;;;9.00;99.90;;;;;;4882365;29;20371;-94
2023/01/12 04:52:31;;;;;;;10.63;1.98;;;8.90;99.90;;;;;;4865935;29;20080;-95
2023/01/12 04:54:57;;;;;;;9.25;1.83;;;8.90;99.90;;;;;;4866509;29;20088;-93
2023/01/12 04:57:23;;;;;;;9.52;1.70;;;9.00;99.90;;;;;;4882266;29;20474;-93
2023/01/12 04:59:48;;;;;;;7.68;1.77;;;8.90;99.90;;;;;;4865971;29;20096;-94
2023/01/12 05:02:14;;;;;;;10.23;2.00;;;8.90;99.90;;;;;;4881546;29;20478;-92
2023/01/12 05:04:42;;;;;;;7.18;1.80;;;8.90;99.90;;;;;;4865007;29;20061;-91
2023/01/12 05:07:08;;;;;;;8.25;1.48;;;8.90;99.90;;;;;;4865278;29;20525;-92
2023/01/12 05:12:18;;;;;;;9.50;1.70;;;8.90;99.90;;;;;;4864061;29;20439;-90
2023/01/12 05:14:43;;;;;;;7.72;1.50;;;8.90;99.90;;;;;;4880963;29;20041;-90
2023/01/12 05:17:09;;;;;;;5.45;1.55;;;8.90;99.90;;;;;;4862747;29;20127;-88
2023/01/12 05:19:34;;;;;;;9.10;1.67;;;8.90;99.90;;;;;;4867387;29;20049;-93
2023/01/12 05:22:00;;;;;;;4.57;1.00;;;8.90;99.90;;;;;;4865423;29;20041;-90
2023/01/12 05:24:26;;;;;;;6.43;1.10;;;8.80;99.90;;;;;;4863794;29;20045;-94
2023/01/12 05:26:51;;;;;;;8.18;1.20;;;8.80;99.90;;;;;;4881561;29;20478;-89
2023/01/12 05:29:17;;;;;;;6.22;1.20;;;8.80;99.90;;;;;;4880891;29;20068;-90
2023/01/12 05:34:52;;;;;;;6.32;1.30;;;8.80;99.90;;;;;;4845200;29;20110;-96
2023/01/12 05:38:28;;;;;;;7.18;1.20;;;8.80;99.90;;;;;;4815570;29;20059;-96
2023/01/12 05:41:24;;;;;;;6.93;1.13;;;8.80;99.90;;;;;;4817340;29;20059;-95
2023/01/12 05:44:05;;;;;;;3.85;1.10;;;8.80;99.90;;;;;;4789781;29;20059;-94
2023/01/12 05:46:46;;;;;;;4.80;0.98;;;8.80;99.90;;;;;;4790656;29;20057;-95
2023/01/12 05:49:11;;;;;;;6.60;1.13;;;8.70;99.90;;;;;;4793346;29;20059;-89
2023/01/12 05:51:37;;;;;;;8.48;1.25;;;8.80;99.90;;;;;;4805056;29;20126;-89
2023/01/12 05:54:03;;;;;;;5.82;1.20;;;8.80;99.90;;;;;;4803201;29;20409;-89
2023/01/12 05:56:29;;;;;;;4.63;1.20;;;8.80;99.90;;;;;;4880924;29;20049;-89
2023/01/12 05:58:57;;;;;;;4.40;1.00;;;8.80;99.90;;;;;;4880455;29;20097;-89
2023/01/12 06:01:24;;;;;;;5.55;1.10;;;8.80;99.90;;;;;;4863849;29;20045;-89
2023/01/12 06:03:54;;;;;;;5.60;1.10;;;8.70;99.90;;;;;;4881073;29;20049;-90
2023/01/12 06:06:27;;;;;;;5.95;1.27;;;8.80;99.90;;;;;;4879787;29;20056;-89
2023/01/12 06:08:53;;;;;;;5.90;1.10;;;8.80;99.90;;;;;;4880792;29;20494;-90
2023/01/12 06:14:08;;;;;;;4.57;1.00;;;8.80;99.90;;;;;;4878900;29;20136;-89
2023/01/12 06:16:40;;;;;;;4.28;1.13;;;8.80;99.90;;;;;;4864006;29;20056;-90
2023/01/12 06:19:06;;;;;;;4.20;0.90;;;8.80;99.90;;;;;;4863341;29;20041;-89
2023/01/12 06:21:33;;;;;;;4.70;0.93;;;8.80;99.90;;;;;;4879860;29;20407;-89
2023/01/12 06:23:59;;;;;;;3.65;0.90;;;8.90;99.90;;;;;;4880544;29;20045;-88
2023/01/12 06:26:27;;;;;;;4.38;0.90;;;8.90;99.90;;;;;;4862667;29;20064;-88
2023/01/12 06:28:52;;;;;;;4.05;0.80;;;8.90;99.90;;;;;;4879886;29;20084;-89
2023/01/12 06:31:18;;;;;;;3.65;0.75;;;8.90;99.90;;;;;;4880224;29;20526;-88
2023/01/12 06:33:47;;;;;;;1.92;0.63;;;8.90;99.90;;;;;;4863130;29;20056;-88
2023/01/12 06:36:12;;;;;;;2.13;0.70;;;9.00;99.90;;;;;;4863279;29;20050;-88
2023/01/12 06:38:42;;;;;;;4.57;0.90;;;9.00;99.90;;;;;;4879820;29;20049;-88
2023/01/12 06:43:56;;;;;;;2.78;0.50;;;9.00;99.90;;;;;;4862715;29;20049;-88
2023/01/12 06:46:22;;;;;;;2.90;0.50;;;9.00;99.90;;;;;;4879445;29;20049;-88
2023/01/12 06:48:48;;;;;;;1.30;0.60;;;9.10;99.90;;;;;;4862732;29;20045;-88
2023/01/12 06:51:18;;;;;;;3.42;0.55;;;9.10;99.90;;;;;;4879522;29;20052;-89
2023/01/12 06:53:44;;;;;;;3.30;0.70;;;9.10;99.90;;;;;;4863477;29;20130;-88
2023/01/12 06:56:09;;;;;;;2.03;0.50;;;9.20;99.90;;;;;;4878942;29;20201;-88
2023/01/12 06:58:36;;;;;;;2.25;0.50;;;9.20;99.90;;;;;;4863450;29;20041;-88
2023/01/12 07:01:04;;;;;;;2.22;0.65;;;9.20;99.90;;;;;;4879434;29;20080;-89
2023/01/12 07:03:33;;;;;;;0.70;0.40;;;9.20;99.90;;;;;;4862287;29;20109;-88
2023/01/12 07:06:02;;;;;;;1.67;0.50;;;9.20;99.90;;;;;;4878883;29;20380;-89
2023/01/12 07:08:27;;;;;;;1.98;0.63;;;9.20;99.90;;;;;;4862037;29;20446;-89
2023/01/12 07:10:53;;;;;;;1.63;0.60;;;9.20;99.90;;;;;;4862750;29;20049;-89
2023/01/12 07:13:19;;;;;;;1.58;0.55;;;9.30;99.90;;;;;;4879290;29;20378;-89
2023/01/12 07:15:44;;;;;;;1.42;0.55;;;9.30;99.90;;;;;;4861757;29;20082;-89
2023/01/12 07:18:10;;;;;;;2.70;0.65;;;9.30;99.90;;;;;;4879227;29;20063;-89
2023/01/12 07:20:36;;;;;;;2.00;0.52;;;9.30;99.90;;;;;;4862763;29;20071;-88
2023/01/12 07:23:04;;;;;;;2.13;0.60;;;9.30;99.90;;;;;;4878509;29;20072;-89
2023/01/12 07:25:30;;;;;;;1.65;0.50;;;9.30;99.90;;;;;;4879264;29;20056;-89
2023/01/12 07:27:57;;;;;;;2.60;0.50;;;9.40;99.90;;;;;;4861838;29;20044;-88
2023/01/12 07:30:24;;;;;;;3.17;0.80;;;9.40;99.90;;;;;;4878442;29;20112;-88
2023/01/12 07:32:50;;;;;;;4.18;0.88;;;9.40;99.90;;;;;;4862522;29;20041;-89
2023/01/12 07:35:17;;;;;;;2.45;0.90;;;9.40;99.90;;;;;;4879036;29;20052;-88
2023/01/12 07:37:47;;;;;;;5.90;1.05;;;9.50;99.90;;;;;;4878733;29;20049;-90
2023/01/12 07:40:13;;;;;;;6.22;1.15;;;9.50;99.90;;;;;;4862097;29;20478;-89
2023/01/12 07:42:39;;;;;;;7.93;1.50;;;9.50;99.90;;;;;;4862568;29;20100;-89
2023/01/12 07:45:05;;;;;;;9.45;1.73;;;9.50;99.90;;;;;;4861575;29;20045;-90
2023/01/12 07:47:30;;;;;;;11.23;2.00;;;9.60;99.90;;;;;;4878470;29;20056;-89
2023/01/12 07:49:56;;;;;;;8.98;1.77;;;9.60;99.90;;;;;;4862774;29;20041;-92
2023/01/12 07:52:24;;;;;;;13.43;2.28;;;9.60;99.90;;;;;;4878949;29;20518;-92
2023/01/12 07:54:50;;;;;;;12.45;2.20;;;9.60;99.90;;;;;;4863193;29;20093;-90
2023/01/12 07:57:17;;;;;;;11.27;2.05;;;9.70;99.90;;;;;;4879236;29;20140;-91
2023/01/12 07:59:45;;;;;;;12.82;2.13;;;9.70;99.90;;;;;;4874295;29;20061;-89
2023/01/12 08:02:15;;;;;;;19.70;2.65;;;9.70;99.90;;;;;;4862294;29;20045;-89
2023/01/12 08:04:45;;;;;;;14.50;2.28;;;9.80;99.90;;;;;;4862566;29;20048;-89
2023/01/12 08:07:11;;;;;;;19.15;2.80;;;9.80;99.90;;;;;;4862076;29;20109;-89
2023/01/12 08:09:37;;;;;;;19.45;3.40;;;9.90;99.90;;;;;;4862800;29;20096;-91
2023/01/12 08:12:02;;;;;;;18.55;2.83;;;9.90;99.90;;;;;;4860795;29;20045;-88
2023/01/12 08:14:33;;;;;;;23.25;3.67;;;10.00;99.90;;;;;;4879059;29;20045;-89
2023/01/12 08:17:01;;;;;;;23.83;3.75;;;10.00;99.90;;;;;;4862548;29;20041;-89
2023/01/12 08:19:37;;;;;;;26.15;4.05;;;10.10;99.90;;;;;;4877762;29;20053;-90
2023/01/12 08:22:07;;;;;;;30.77;4.30;;;10.10;99.90;;;;;;4882772;29;20398;-89
2023/01/12 08:24:39;;;;;;;36.80;4.53;;;10.10;99.90;;;;;;4865849;29;20056;-89
2023/01/12 08:27:09;;;;;;;30.38;4.60;;;10.20;99.90;;;;;;4882095;29;20081;-89
2023/01/12 08:29:44;;;;;;;30.08;4.35;;;10.20;99.90;;;;;;4882657;29;20067;-91
2023/01/12 08:32:31;;;;;;;27.15;4.07;;;10.30;99.90;;;;;;4866184;29;20499;-93
2023/01/12 08:34:59;;;;;;;27.33;3.65;;;10.30;99.90;;;;;;4876585;29;20573;-91
2023/01/12 08:37:37;;;;;;;22.20;3.75;;;10.30;99.90;;;;;;4865579;29;20113;-90
2023/01/12 08:40:04;;;;;;;31.88;4.28;;;10.30;99.90;;;;;;4864819;29;20080;-91
2023/01/12 08:42:30;;;;;;;30.35;4.80;;;10.40;99.90;;;;;;4882284;29;20061;-90
2023/01/12 08:44:55;;;;;;;33.10;4.13;;;10.40;99.90;;;;;;4882865;29;20044;-93
2023/01/12 08:47:27;;;;;;;25.02;3.42;;;10.40;99.90;;;;;;4870429;29;20063;-89
2023/01/12 08:49:58;;;;;;;25.85;3.95;;;10.50;99.90;;;;;;4847219;29;20052;-89
2023/01/12 08:52:24;;;;;;;26.98;4.00;;;10.50;99.90;;;;;;4847144;29;20436;-89
2023/01/12 08:54:50;;;;;;;27.98;4.97;;;10.50;99.90;;;;;;4869785;29;20048;-89
2023/01/12 08:57:17;;;;;;;27.58;3.92;;;10.50;99.90;;;;;;4880784;29;20049;-88
2023/01/12 09:00:01;;;;;;;26.35;3.65;;;10.50;99.90;;;;;;4881599;29;20049;-89
2023/01/12 09:02:27;;;;;;;26.65;4.40;;;10.60;99.90;;;;;;4864194;29;20144;-88
2023/01/12 09:04:52;;;;;;;29.92;4.07;;;10.60;99.90;;;;;;4852547;29;20091;-90
2023/01/12 09:07:18;;;;;;;24.35;3.72;;;10.50;99.90;;;;;;4846473;29;20415;-89
2023/01/12 09:09:44;;;;;;;27.25;4.15;;;10.60;99.90;;;;;;4862618;29;20049;-89
2023/01/12 09:12:09;;;;;;;25.95;3.65;;;10.60;99.90;;;;;;4872406;29;20053;-88
2023/01/12 09:14:37;;;;;;;22.83;3.78;;;10.70;99.90;;;;;;4864367;29;20040;-90
2023/01/12 09:17:04;;;;;;;25.77;3.75;;;10.70;99.90;;;;;;4864264;29;20052;-89
2023/01/12 09:19:29;;;;;;;27.58;4.05;;;10.70;99.90;;;;;;4881592;29;20049;-89
2023/01/12 09:21:55;;;;;;;28.13;4.18;;;10.70;99.90;;;;;;4881343;29;20052;-90
2023/01/12 09:24:21;;;;;;;25.92;3.80;;;10.70;99.90;;;;;;4880731;29;20045;-90
2023/01/12 09:26:46;;;;;;;28.65;4.22;;;10.80;99.90;;;;;;4864796;29;20041;-89
2023/01/12 09:29:13;;;;;;;28.13;4.00;;;10.80;99.90;;;;;;4863682;29;20057;-90
2023/01/12 09:31:41;;;;;;;25.10;3.50;;;10.80;99.90;;;;;;4864510;29;20057;-90
2023/01/12 09:34:07;;;;;;;26.08;3.40;;;10.80;99.90;;;;;;4864124;29;20045;-89
2023/01/12 09:36:34;;;;;;;22.00;3.28;;;10.80;99.90;;;;;;4864030;29;20402;-90
2023/01/12 09:39:01;;;;;;;25.40;4.10;;;10.80;99.90;;;;;;4864527;29;20048;-89
2023/01/12 09:47:30;;;;;;;22.90;3.53;;;10.90;99.90;;;;;;4864033;29;20127;-89
2023/01/12 09:50:10;;;;;;;23.75;3.58;;;10.90;99.90;;;;;;4880985;29;20045;-89
2023/01/12 09:53:01;;;;;;;22.60;3.72;;;10.90;99.90;;;;;;4864034;29;20397;-89
2023/01/12 09:55:38;;;;;;;26.33;3.88;;;10.90;99.90;;;;;;4845678;29;20499;-90
2023/01/12 09:58:04;;;;;;;30.10;3.83;;;10.90;99.90;;;;;;4868902;29;20443;-88
2023/01/12 10:00:30;;;;;;;27.50;3.92;;;10.90;99.90;;;;;;4849398;29;20052;-89
2023/01/12 10:03:10;;;;;;;21.67;3.88;;;11.00;99.90;;;;;;4850434;29;20049;-89
2023/01/12 10:05:42;;;;;;;20.38;2.90;;;11.00;99.90;;;;;;4861707;29;20131;-87
2023/01/12 10:08:44;;;;;;;25.08;4.15;;;10.90;99.90;;;;;;4883738;29;20056;-89
2023/01/12 10:11:37;;;;;;;28.27;3.55;;;11.00;99.90;;;;;;4864179;29;20092;-87
2023/01/12 10:14:05;;;;;;;22.70;3.35;;;11.00;99.90;;;;;;4863767;29;20053;-88
2023/01/12 10:16:52;;;;;;;22.50;3.50;;;11.00;99.90;;;;;;4874055;29;20037;-89
2023/01/12 10:19:26;;;;;;;24.98;4.57;;;11.10;99.90;;;;;;4879741;29;20049;-88
2023/01/12 10:21:53;;;;;;;23.42;4.10;;;11.10;99.90;;;;;;4864914;29;20041;-89
2023/01/12 10:24:24;;;;;;;20.08;3.58;;;11.10;99.90;;;;;;4880170;29;20041;-88
2023/01/12 10:27:00;;;;;;;22.80;3.50;;;11.10;99.90;;;;;;4875579;29;20045;-90
2023/01/12 10:29:25;;;;;;;22.90;3.85;;;11.10;99.90;;;;;;4878662;29;20056;-89
2023/01/12 10:31:51;;;;;;;29.77;3.90;;;11.10;99.90;;;;;;4865711;29;20049;-88
2023/01/12 10:34:17;;;;;;;28.83;3.67;;;11.20;99.90;;;;;;4882337;29;20056;-90
2023/01/12 10:36:53;;;;;;;22.90;3.58;;;11.20;99.90;;;;;;4880212;29;20124;-89
2023/01/12 10:39:41;;;;;;;25.67;3.28;;;11.20;99.90;;;;;;4867670;29;20093;-88
2023/01/12 10:45:19;;;;;;;20.85;3.60;;;11.30;99.90;;;;;;4878211;29;20058;-87
2023/01/12 10:47:45;;;;;;;20.60;3.20;;;11.30;99.90;;;;;;4854480;29;20572;-88
2023/01/12 10:50:19;;;;;;;19.08;3.53;;;11.30;99.90;;;;;;4862543;29;20108;-89
2023/01/12 10:52:45;;;;;;;19.70;3.17;;;11.30;99.90;;;;;;4879870;29;20097;-89
2023/01/12 10:55:19;;;;;;;16.30;2.95;;;11.30;99.90;;;;;;4862148;29;20137;-89
2023/01/12 10:57:51;;;;;;;23.00;3.38;;;11.40;99.90;;;;;;4860965;29;20040;-89
2023/01/12 11:00:25;;;;;;;19.70;3.13;;;11.40;99.90;;;;;;4854064;29;20057;-90
2023/01/12 11:02:51;;;;;;;20.02;3.30;;;11.40;99.90;;;;;;4862619;29;20101;-90
2023/01/12 11:05:36;;;;;;;20.10;3.45;;;11.40;99.90;;;;;;4858535;29;20049;-87
2023/01/12 11:08:20;;;;;;;19.92;3.25;;;11.50;99.90;;;;;;4862196;29;20048;-88
2023/01/12 11:10:48;;;;;;;22.58;3.33;;;11.50;99.90;;;;;;4870313;29;20076;-87
2023/01/12 11:13:36;;;;;;;24.33;3.72;;;11.50;99.90;;;;;;4877135;29;20044;-87
2023/01/12 11:16:29;;;;;;;19.27;3.45;;;11.50;99.90;;;;;;4868666;29;20053;-86
2023/01/12 11:19:13;;;;;;;20.25;3.63;;;11.50;99.90;;;;;;4878222;29;20088;-89
2023/01/12 11:21:59;;;;;;;23.52;3.72;;;11.50;99.90;;;;;;4862677;29;20052;-88
2023/01/12 11:24:27;;;;;;;25.30;3.63;;;11.50;99.90;;;;;;4879120;29;20482;-87
2023/01/12 11:27:15;;;;;;;21.98;3.50;;;11.50;99.90;;;;;;4861625;29;20076;-87
2023/01/12 11:29:50;;;;;;;22.10;3.72;;;11.50;99.90;;;;;;4856718;29;20061;-87
2023/01/12 11:32:35;;;;;;;28.13;4.10;;;11.50;99.90;;;;;;4867979;29;20068;-87
2023/01/12 11:35:18;;;;;;;23.88;3.65;;;11.50;99.90;;;;;;4874699;29;20044;-86
2023/01/12 11:37:44;;;;;;;;;;;11.50;99.90;;;;;;4872311;29;20127;-88
2023/01/12 11:40:37;;;;;;;22.40;3.20;;;11.50;99.90;;;;;;4860724;29;20366;-90
2023/01/12 11:46:42;;;;;;;26.93;3.80;;;11.60;99.90;;;;;;4878937;29;20048;-90
2023/01/12 11:49:27;;;;;;;19.95;3.38;;;11.60;99.90;;;;;;4839015;29;20079;-90
2023/01/12 11:51:57;;;;;;;17.75;3.10;;;11.60;99.90;;;;;;4878396;29;20045;-91
2023/01/12 11:54:36;;;;;;;26.80;3.47;;;11.60;99.90;;;;;;4856498;29;20372;-89
2023/01/12 11:57:10;;;;;;;24.10;4.03;;;11.60;99.90;;;;;;4885377;29;20073;-90
2023/01/12 12:00:02;;;;;;;16.83;2.90;;;11.70;99.90;;;;;;4880987;29;20079;-90
2023/01/12 12:02:39;;;;;;;20.73;3.20;;;11.60;99.90;;;;;;4884322;29;20049;-92
2023/01/12 12:05:30;;;;;;;18.70;3.05;;;11.70;99.90;;;;;;4859039;29;20051;-93
2023/01/12 12:08:01;;;;;;;21.98;3.45;;;11.60;99.90;;;;;;4877825;29;20104;-90
2023/01/12 12:10:55;;;;;;;18.52;3.67;;;11.70;99.90;;;;;;4873219;29;20049;-92
2023/01/12 12:13:58;;;;;;;20.13;3.25;;;11.60;99.90;;;;;;4882522;29;20533;-91
2023/01/12 12:16:42;;;;;;;17.92;3.10;;;11.70;99.90;;;;;;4895596;29;20088;-90
2023/01/12 12:28:07;;;;;;;22.38;3.17;;;11.70;99.90;;;;;;5514582;23;20117;-92
2023/01/12 12:31:01;;;;;;;22.63;3.30;;;11.60;99.90;;;;;;4862641;29;20055;-90
2023/01/12 12:34:12;;;;;;;20.35;3.50;;;11.60;99.90;;;;;;4882116;29;20493;-92
2023/01/12 12:40:04;;;;;;;21.33;3.42;;;11.60;99.90;;;;;;4955430;23;20052;-92
2023/01/12 12:46:03;;;;;;;23.27;3.75;;;11.60;99.90;;;;;;4880136;29;20443;-88
2023/01/12 12:48:49;;;;;;;22.20;3.95;;;11.50;99.90;;;;;;4866369;29;20080;-88
2023/01/12 12:51:15;;;;;;;24.08;3.70;;;11.60;99.90;;;;;;4864607;29;20123;-88
2023/01/12 12:53:45;;;;;;;18.65;3.22;;;11.50;99.90;;;;;;4881324;29;20084;-89
2023/01/12 12:56:13;;;;;;;19.92;3.33;;;11.50;99.90;;;;;;4864441;29;20402;-88
2023/01/12 12:58:43;;;;;;;25.90;4.13;;;11.50;99.90;;;;;;4880402;29;20033;-88
2023/01/12 13:01:32;;;;;;;26.95;4.57;;;11.50;99.90;;;;;;4863312;29;20041;-88
2023/01/12 13:04:00;;;;;;;28.15;3.90;;;11.50;99.90;;;;;;4875794;29;20418;-88
2023/01/12 13:06:47;;;;;;;26.83;4.25;;;11.50;99.90;;;;;;4876964;29;20045;-89
2023/01/12 13:09:16;;;;;;;26.20;4.43;;;11.50;99.90;;;;;;4867087;29;20162;-88
2023/01/12 13:11:57;;;;;;;28.10;3.63;;;11.50;99.90;;;;;;4863972;29;20048;-88
2023/01/12 13:14:42;;;;;;;27.05;3.92;;;11.50;99.90;;;;;;4863436;29;20562;-89
2023/01/12 13:17:23;;;;;;;27.70;4.72;;;11.60;99.90;;;;;;4864677;29;20066;-90
2023/01/12 13:19:52;;;;;;;28.30;3.92;;;11.50;99.90;;;;;;4864444;29;20379;-88
2023/01/12 13:22:45;;;;;;;24.80;4.03;;;11.50;99.90;;;;;;4880133;29;20041;-92
2023/01/12 13:25:19;;;;;;;26.88;4.22;;;11.50;99.90;;;;;;4880766;29;20478;-90
2023/01/12 13:28:08;;;;;;;24.75;4.05;;;11.50;99.90;;;;;;4864335;29;20056;-90
2023/01/12 13:30:40;;;;;;;25.40;4.40;;;11.60;99.90;;;;;;4854557;29;20048;-88
2023/01/12 13:33:17;;;;;;;23.63;3.92;;;11.60;99.90;;;;;;4878702;29;20049;-88
2023/01/12 13:35:45;;;;;;;30.17;4.20;;;11.60;99.90;;;;;;4862139;29;20127;-87
2023/01/12 13:38:33;;;;;;;22.58;4.05;;;11.60;99.90;;;;;;4863507;29;20145;-89
2023/01/12 13:44:41;;;;;;;21.80;3.72;;;11.60;99.90;;;;;;4854810;29;20057;-89
2023/01/12 13:50:23;;;;;;;;;;;11.60;99.90;;;;;;4889549;23;20057;-90
2023/01/12 13:53:00;;;;;;;24.45;3.75;;;11.50;99.90;;;;;;4858025;29;19968;-90
2023/01/12 13:55:29;;;;;;;26.15;3.92;;;11.50;99.90;;;;;;4864562;29;20052;-90
2023/01/12 13:58:15;;;;;;;29.52;5.05;;;11.60;99.90;;;;;;4863317;29;20053;-90
2023/01/12 14:07:36;;;;;;;25.27;4.28;;;11.50;99.90;;;;;;5054990;23;20099;-92
2023/01/12 14:10:40;;;;;;;23.08;4.30;;;11.60;99.90;;;;;;4864377;29;20414;-93
2023/01/12 14:13:30;;;;;;;22.35;4.03;;;11.60;99.90;;;;;;4864678;29;20193;-91
2023/01/12 14:18:49;;;;;;;24.98;4.20;;;11.60;99.90;;;;;;4862752;29;20569;-92